Flight Track Log - Related Links

Times and Time Zones

All times are in EST time to prevent confusion due to time zone crossing. See the RPA4946 flight status page for this flight to view local times or setup timezone preferences in your user account.

Time Position Orientation Groundspeed Altitude Reporting Facility
EST Latitude Longitude Course Direction KTS MPH feet Rate Location/Type
Mon 09:58:27 AM 39.0833 -108.5000 155° Southeast 190 219 7,400  Level Denver TRACON
Mon 09:59:05 AM 39.0442 -108.4767 155° Southeast 189 217 9,200 2,400 Climbing Denver Center
Mon 10:00:07 AM 38.9947 -108.4475 155° Southeast 198 228 11,400 2,098 Climbing Denver Center
Mon 10:01:08 AM 38.9633 -108.3811 121° Southeast 225 259 13,500 2,016 Climbing Denver Center
Mon 10:02:09 AM 38.9347 -108.3017 115° Southeast 229 264 15,500 1,820 Climbing Denver Center
Mon 10:03:10 AM 38.9058 -108.2236 115° Southeast 241 277 17,200 1,561 Climbing Denver Center
Mon 10:04:12 AM 38.8739 -108.1394 116° Southeast 249 287 18,700 1,366 Climbing Denver Center
Mon 10:05:13 AM 38.8442 -108.0611 116° Southeast 254 292 20,000 1,279 Climbing Denver Center
Mon 10:06:14 AM 38.8136 -107.9811 116° Southeast 260 299 21,300 1,268 Climbing Denver Center
Mon 10:07:16 AM 38.7783 -107.8858 115° Southeast 265 305 22,600 829 Climbing Denver Center
Mon 10:08:17 AM 38.7447 -107.8019 117° Southeast 273 314 23,000 197 Climbing Denver Center
Mon 10:09:18 AM 38.7008 -107.6867 116° Southeast 318 366 23,000  Level Denver Center
Mon 10:10:20 AM 38.6583 -107.5764 116° Southeast 354 407 23,000  Level Denver Center
Mon 10:11:21 AM 38.6192 -107.4686 115° Southeast 367 422 23,000  Level Denver Center
Mon 10:12:22 AM 38.5664 -107.3331 116° Southeast 365 420 23,000  Level Denver Center
Mon 10:13:24 AM 38.5231 -107.2225 117° Southeast 364 419 23,000  Level Denver Center
Mon 10:14:25 AM 38.4819 -107.1164 116° Southeast 363 418 23,000  Level Denver Center
Mon 10:15:27 AM 38.4742 -106.9678 94° East 370 426 23,000  Level Denver Center
Mon 10:16:28 AM 38.5161 -106.8456 66° East 376 433 23,000  Level Denver Center
Mon 10:17:30 AM 38.5558 -106.7281 67° East 367 422 23,000  Level Denver Center
Mon 10:18:31 AM 38.5936 -106.6078 68° East 366 421 23,000  Level Denver Center
Mon 10:19:33 AM 38.6317 -106.4883 68° East 365 420 23,000  Level Denver Center
Mon 10:21:36 AM 38.7100 -106.2450 68° East 366 421 23,000  Level Denver Center
Mon 10:22:38 AM 38.7550 -106.1067 67° East 365 420 23,000  Level Denver Center
Mon 10:23:39 AM 38.8058 -106.0017 58° Northeast 367 422 23,000 -49 Level Denver Center
Mon 10:24:41 AM 38.8761 -105.8961 49° Northeast 355 409 22,900 -871 Descending Denver Center
Mon 10:25:43 AM 38.9372 -105.8025 50° Northeast 355 409 21,200 -1,610 Descending Denver Center
Mon 10:26:44 AM 38.9953 -105.7097 51° Northeast 350 403 19,600 -1,707 Descending Denver Center
Mon 10:27:46 AM 39.0631 -105.6072 50° Northeast 339 390 17,700 -1,645 Descending Denver Center
Mon 10:28:48 AM 39.1172 -105.5222 51° Northeast 328 377 16,200 -823 Descending Denver Center
Mon 10:29:50 AM 39.1786 -105.4269 50° Northeast 325 374 16,000 -537 Descending Denver Center
Mon 10:30:51 AM 39.2589 -105.3517 36° Northeast 332 382 15,100 -829 Descending Denver Center
Mon 10:31:53 AM 39.3344 -105.2878 33° Northeast 325 374 14,300 -532 Descending Denver Center
Mon 10:32:55 AM 39.4036 -105.2256 35° Northeast 305 351 14,000 -581 Descending Denver Center
Mon 10:33:57 AM 39.4867 -105.1842 21° North 308 354 13,100 -484 Descending Denver Center
Mon 10:34:59 AM 39.5653 -105.1686 North 288 331 13,000 -339 Descending Denver Center
Mon 10:36:01 AM 39.6386 -105.1619 North 268 308 12,400 -823 Descending Denver Center
Mon 10:37:03 AM 39.7181 -105.1558 North 265 305 11,300 -677 Descending Denver Center
Mon 10:38:05 AM 39.7911 -105.1389 10° North 274 315 11,000 -774 Descending Denver Center
Mon 10:39:07 AM 39.8292 -105.0522 60° Northeast 257 296 9,700 -1,161 Descending Denver Center
Mon 10:40:09 AM 39.8422 -104.9783 77° East 217 250 8,600 -1,210 Descending Denver Center
Mon 10:41:11 AM 39.8417 -104.9042 91° East 209 241 7,200 -823 Descending Denver Center
Mon 10:42:13 AM 39.8417 -104.8319 90° East 184 212 6,900 -435 Descending Denver Center
Mon 10:43:15 AM 39.8408 -104.7811 91° East 147 169 6,300 -726 Descending Denver Center
Mon 10:44:17 AM 39.8411 -104.7294 90° East 135 155 5,400 -435 Descending Denver Center
Mon 10:45:19 AM 39.8406 -104.6819 91° East 135 155 5,400  Level Denver Center
Mon 10:47:00 AM 39.8500 -104.6667 339° North  Level FlightAware Approximate
Mon 10:54:00 AM 39.8617 -104.6732 339° North  Level Estimated
Mon 10:55:00 AM 39.8617 -104.6732 339° North  Level Estimated

Login

Don't have an account? Register now (free) for customized features, flight alerts, and more!